createdAt,value
2017-10-16T00:01:05.251Z,75.80
2017-10-16T00:04:06.775Z,75.90
2017-10-16T00:07:08.307Z,76.30
2017-10-16T00:10:10.583Z,78.30
2017-10-16T00:13:12.127Z,77.70
2017-10-16T00:19:22.779Z,75.50
2017-10-16T00:22:24.304Z,77.40
2017-10-16T00:25:25.814Z,77.40
2017-10-16T00:28:28.067Z,78.20
2017-10-16T00:31:30.344Z,78.00
2017-10-16T00:34:31.909Z,76.50
2017-10-16T00:37:34.141Z,78.30
2017-10-16T00:40:35.656Z,78.00
2017-10-16T00:43:37.174Z,76.90
2017-10-16T00:46:38.685Z,77.50
2017-10-16T00:52:48.475Z,77.60
2017-10-16T00:55:50.036Z,76.40
2017-10-16T00:58:51.580Z,78.50
2017-10-16T01:01:53.133Z,76.90
2017-10-16T01:04:54.660Z,78.60
2017-10-16T01:07:56.232Z,76.30
2017-10-16T01:10:57.753Z,77.90
2017-10-16T01:13:59.347Z,78.10
2017-10-16T01:17:00.882Z,78.30
2017-10-16T01:20:02.389Z,77.90
2017-10-16T01:23:04.094Z,78.00
2017-10-16T01:26:05.592Z,77.80
2017-10-16T01:29:07.211Z,77.70
2017-10-16T01:32:08.757Z,78.40
2017-10-16T01:35:10.372Z,79.80
2017-10-16T01:38:11.933Z,78.30
2017-10-16T01:41:14.184Z,79.20
2017-10-16T01:44:15.860Z,78.80
2017-10-16T01:47:17.395Z,78.80
2017-10-16T01:50:18.949Z,79.70
2017-10-16T01:53:20.496Z,79.10
2017-10-16T01:56:22.212Z,78.60
2017-10-16T01:59:23.740Z,78.70
2017-10-16T02:02:26.001Z,79.10
2017-10-16T02:05:27.641Z,78.90
2017-10-16T02:08:29.216Z,77.40
2017-10-16T02:11:31.504Z,77.50
2017-10-16T02:14:33.717Z,78.90
2017-10-16T02:17:35.257Z,76.90
2017-10-16T02:20:36.753Z,78.30
2017-10-16T02:23:38.310Z,77.80
2017-10-16T02:26:39.838Z,77.90
2017-10-16T02:29:41.364Z,78.30
2017-10-16T02:32:42.928Z,79.60
2017-10-16T02:35:44.428Z,78.10
2017-10-16T02:38:46.016Z,78.70
2017-10-16T02:41:48.231Z,78.70
2017-10-16T02:44:49.818Z,76.60
2017-10-16T02:47:52.084Z,78.80
2017-10-16T02:50:53.633Z,78.20
2017-10-16T02:53:55.157Z,77.10
2017-10-16T02:56:56.716Z,76.50
2017-10-16T02:59:58.296Z,76.90
2017-10-16T03:02:59.825Z,77.80
2017-10-16T03:06:01.344Z,77.00
2017-10-16T03:09:03.579Z,78.20
2017-10-16T03:12:05.102Z,77.60
2017-10-16T03:15:06.597Z,78.60
2017-10-16T03:18:08.905Z,79.10
2017-10-16T03:21:10.379Z,78.60
2017-10-16T03:24:11.906Z,77.40
2017-10-16T03:27:14.167Z,79.10
2017-10-16T03:30:16.395Z,79.00
2017-10-16T03:33:17.944Z,78.60
2017-10-16T03:36:19.480Z,79.20
2017-10-16T03:39:21.027Z,77.50
2017-10-16T03:42:22.510Z,78.50
2017-10-16T03:45:24.000Z,78.80
2017-10-16T03:48:26.202Z,79.40
2017-10-16T03:51:27.700Z,78.80
2017-10-16T03:54:29.247Z,78.60
2017-10-16T03:57:30.718Z,78.80
2017-10-16T04:00:33.052Z,78.90
2017-10-16T04:03:34.593Z,77.50
2017-10-16T04:06:36.134Z,78.30
2017-10-16T04:09:37.622Z,78.30
2017-10-16T04:12:39.135Z,77.80
2017-10-16T04:15:40.702Z,78.30
2017-10-16T04:18:42.211Z,78.40
2017-10-16T04:21:43.747Z,79.00
2017-10-16T04:24:45.244Z,77.60
2017-10-16T04:27:47.500Z,79.60
2017-10-16T04:30:49.729Z,79.30
2017-10-16T04:33:51.303Z,78.60
2017-10-16T04:36:52.822Z,78.70
2017-10-16T04:39:54.367Z,79.40
2017-10-16T04:42:55.933Z,79.30
2017-10-16T04:45:57.479Z,77.70
2017-10-16T04:48:59.011Z,79.00
2017-10-16T04:52:01.221Z,80.20
2017-10-16T04:55:02.795Z,79.30
2017-10-16T04:58:04.277Z,79.70
2017-10-16T05:01:05.965Z,80.20
2017-10-16T05:04:07.564Z,78.10
2017-10-16T05:07:09.040Z,79.60
2017-10-16T05:10:10.613Z,78.70
2017-10-16T05:13:12.835Z,79.00
2017-10-16T05:16:14.359Z,77.70
2017-10-16T05:19:15.883Z,78.50
2017-10-16T05:22:17.409Z,79.50
2017-10-16T05:25:18.977Z,79.00
2017-10-16T05:28:21.224Z,79.30
2017-10-16T05:31:22.739Z,77.60
2017-10-16T05:34:24.956Z,79.30
2017-10-16T05:37:26.530Z,78.60
2017-10-16T05:40:28.007Z,79.70
2017-10-16T05:43:30.288Z,79.50
2017-10-16T05:46:32.873Z,79.80
2017-10-16T05:49:34.419Z,79.40
2017-10-16T05:52:36.009Z,78.60
2017-10-16T05:55:37.493Z,79.10
2017-10-16T05:58:39.120Z,78.80
2017-10-16T06:01:40.604Z,77.80
2017-10-16T06:04:42.184Z,79.50
2017-10-16T06:07:44.485Z,80.00
2017-10-16T06:10:46.106Z,78.10
2017-10-16T06:13:47.709Z,79.30
2017-10-16T06:16:49.257Z,79.40
2017-10-16T06:19:50.890Z,78.50
2017-10-16T06:22:52.498Z,77.60
2017-10-16T06:25:53.972Z,77.50
2017-10-16T06:28:55.496Z,77.90
2017-10-16T06:31:57.064Z,78.40
2017-10-16T06:34:58.666Z,79.10
2017-10-16T06:38:00.292Z,78.70
2017-10-16T06:41:01.825Z,77.30
2017-10-16T06:44:03.267Z,78.80
2017-10-16T06:47:04.813Z,76.90
2017-10-16T06:50:06.268Z,78.40
2017-10-16T06:53:07.735Z,78.00
2017-10-16T06:56:09.171Z,77.60
2017-10-16T06:59:10.667Z,78.60
2017-10-16T07:02:12.257Z,78.90
2017-10-16T07:08:22.784Z,78.90
2017-10-16T07:11:24.208Z,77.70
2017-10-16T07:14:25.744Z,76.90
2017-10-16T07:17:27.961Z,78.30
2017-10-16T07:20:29.496Z,77.80
2017-10-16T07:23:30.986Z,77.30
2017-10-16T07:26:32.570Z,78.00
2017-10-16T07:29:34.788Z,78.20
2017-10-16T07:32:36.241Z,76.70
2017-10-16T07:35:37.784Z,76.30
2017-10-16T07:38:39.283Z,77.90
2017-10-16T07:41:40.779Z,77.70
2017-10-16T07:44:42.240Z,76.80
2017-10-16T07:47:43.746Z,76.00
2017-10-16T07:50:45.220Z,77.30
2017-10-16T07:53:47.417Z,77.60
2017-10-16T07:56:48.839Z,75.30
2017-10-16T07:59:50.302Z,76.60
2017-10-16T08:02:52.515Z,77.30
2017-10-16T08:05:53.924Z,77.30
2017-10-16T08:08:56.207Z,78.70
2017-10-16T08:11:57.680Z,78.50
2017-10-16T08:14:59.365Z,76.00
2017-10-16T08:18:01.624Z,76.80
2017-10-16T08:21:03.270Z,75.70
2017-10-16T08:24:04.791Z,75.30
2017-10-16T08:27:06.991Z,76.70
2017-10-16T08:30:08.570Z,76.60
2017-10-16T08:33:10.067Z,76.40
2017-10-16T08:36:12.325Z,76.30
2017-10-16T08:39:14.587Z,76.50
2017-10-16T08:42:16.099Z,76.30
2017-10-16T08:45:17.563Z,75.00
2017-10-16T08:48:19.087Z,74.50
2017-10-16T08:51:20.627Z,74.20
2017-10-16T08:54:22.118Z,73.40
2017-10-16T08:57:23.680Z,74.50
2017-10-16T09:00:29.155Z,73.30
2017-10-16T09:03:30.712Z,75.20
2017-10-16T09:06:32.208Z,73.80
2017-10-16T09:09:33.734Z,73.80
2017-10-16T09:15:44.280Z,75.00
2017-10-16T09:18:45.819Z,75.10
2017-10-16T09:21:47.315Z,75.60
2017-10-16T09:24:48.876Z,74.60
2017-10-16T09:27:51.123Z,75.50
2017-10-16T09:30:52.681Z,74.90
2017-10-16T09:33:54.193Z,78.00
2017-10-16T09:36:55.819Z,76.40
2017-10-16T09:39:58.126Z,76.70
2017-10-16T09:42:59.631Z,74.70
2017-10-16T09:46:01.264Z,76.50
2017-10-16T09:49:02.761Z,74.60
2017-10-16T09:52:04.329Z,74.50
2017-10-16T09:55:05.811Z,75.30
2017-10-16T09:58:08.044Z,76.70
2017-10-16T10:01:09.570Z,76.20
2017-10-16T10:04:11.075Z,75.20
2017-10-16T10:07:12.666Z,74.50
2017-10-16T10:10:14.212Z,76.30
2017-10-16T10:13:15.767Z,76.70
2017-10-16T10:16:17.343Z,75.70
2017-10-16T10:19:18.880Z,75.10
2017-10-16T10:22:21.120Z,75.50
2017-10-16T10:25:22.600Z,75.60
2017-10-16T10:28:24.155Z,76.50
2017-10-16T10:31:26.403Z,75.80
2017-10-16T10:34:27.884Z,74.10
2017-10-16T10:37:29.364Z,75.70
2017-10-16T10:40:31.627Z,75.40
2017-10-16T10:43:33.110Z,75.60
2017-10-16T10:46:35.369Z,76.70
2017-10-16T10:49:37.668Z,75.20
2017-10-16T10:52:39.223Z,74.50
2017-10-16T10:55:40.737Z,74.60
2017-10-16T10:58:42.731Z,73.60
2017-10-16T11:04:52.535Z,73.90
2017-10-16T11:07:54.021Z,71.00
2017-10-16T11:10:55.748Z,71.50
2017-10-16T11:13:57.591Z,70.70
2017-10-16T11:16:59.493Z,74.60
2017-10-16T11:20:01.817Z,71.60
2017-10-16T11:23:03.435Z,70.90
2017-10-16T11:26:05.710Z,72.00
2017-10-16T11:29:08.049Z,71.80
2017-10-16T11:32:09.596Z,70.40
2017-10-16T11:35:11.190Z,71.40
2017-10-16T11:38:13.068Z,72.40
2017-10-16T11:41:15.387Z,76.10
2017-10-16T11:44:16.926Z,75.40
2017-10-16T11:47:18.427Z,79.30
2017-10-16T11:50:19.940Z,79.80
2017-10-16T11:53:21.543Z,78.40
2017-10-16T11:56:23.060Z,76.50
2017-10-16T11:59:24.556Z,75.80
2017-10-16T12:02:26.135Z,77.90
2017-10-16T12:05:27.638Z,72.40
2017-10-16T12:08:29.206Z,76.30
2017-10-16T12:11:30.704Z,72.90
2017-10-16T12:14:32.947Z,76.40
2017-10-16T12:17:35.264Z,70.20
2017-10-16T12:20:36.787Z,68.80
2017-10-16T12:23:38.331Z,74.30
2017-10-16T12:26:40.677Z,75.20
2017-10-16T12:29:42.165Z,73.80
2017-10-16T12:32:43.723Z,76.00
2017-10-16T12:35:45.175Z,74.40
2017-10-16T12:38:46.676Z,70.30
2017-10-16T12:41:48.083Z,69.20
2017-10-16T12:44:50.285Z,70.40
2017-10-16T12:47:52.198Z,69.80
2017-10-16T12:50:53.659Z,69.40
2017-10-16T12:53:56.204Z,68.80
2017-10-16T12:56:57.655Z,68.30
2017-10-16T12:59:59.272Z,70.80
2017-10-16T13:03:01.592Z,70.00
2017-10-16T13:06:03.090Z,69.50
2017-10-16T13:09:05.326Z,72.10
2017-10-16T13:12:06.800Z,70.70
2017-10-16T13:15:08.241Z,71.90
2017-10-16T13:18:09.867Z,69.90
2017-10-16T13:21:11.405Z,71.50
2017-10-16T13:24:12.950Z,69.10
2017-10-16T13:27:14.406Z,67.20
2017-10-16T13:30:15.900Z,67.80
2017-10-16T13:33:17.360Z,68.00
2017-10-16T13:36:18.964Z,69.80
2017-10-16T13:39:20.425Z,70.50
2017-10-16T13:42:21.931Z,65.90
2017-10-16T13:45:23.357Z,68.40
2017-10-16T13:48:24.879Z,67.60
2017-10-16T13:51:27.131Z,65.60
2017-10-16T13:54:28.685Z,65.40
2017-10-16T13:57:30.979Z,72.70
2017-10-16T14:00:32.523Z,72.10
2017-10-16T14:03:34.033Z,73.40
2017-10-16T14:06:35.451Z,75.80
2017-10-16T14:09:36.937Z,70.30
2017-10-16T14:12:38.453Z,69.30
2017-10-16T14:15:39.968Z,75.70
2017-10-16T14:18:41.584Z,76.50
2017-10-16T14:21:43.099Z,75.10
2017-10-16T14:24:44.592Z,73.30
2017-10-16T14:27:46.870Z,76.40
2017-10-16T14:30:48.495Z,75.90
2017-10-16T14:33:50.038Z,76.90
2017-10-16T14:36:51.615Z,80.00
2017-10-16T14:39:53.224Z,79.70
2017-10-16T14:42:55.676Z,81.20
2017-10-16T14:45:57.269Z,81.40
2017-10-16T14:48:58.859Z,81.50
2017-10-16T14:52:00.415Z,79.70
2017-10-16T14:55:02.741Z,82.80
2017-10-16T14:58:04.255Z,80.60
2017-10-16T15:01:06.525Z,83.10
2017-10-16T15:04:09.257Z,82.60
2017-10-16T15:07:11.667Z,81.20
2017-10-16T15:10:13.263Z,79.40
2017-10-16T15:13:15.063Z,82.90
2017-10-16T15:16:17.394Z,81.70
2017-10-16T15:19:19.034Z,83.00
2017-10-16T15:22:20.749Z,83.00
2017-10-16T15:25:22.349Z,84.50
2017-10-16T15:28:27.538Z,84.00
2017-10-16T15:31:32.977Z,82.60
2017-10-16T15:34:34.645Z,84.20
2017-10-16T15:37:36.247Z,83.60
2017-10-16T15:40:38.522Z,84.40
2017-10-16T15:43:40.845Z,84.70
2017-10-16T15:46:43.805Z,85.80
2017-10-16T15:49:45.387Z,83.30
2017-10-16T15:52:46.936Z,84.20
2017-10-16T15:55:48.665Z,83.10
2017-10-16T15:58:50.308Z,83.90
2017-10-16T16:01:53.321Z,84.70
2017-10-16T16:04:55.578Z,84.50
2017-10-16T16:07:57.531Z,83.50
2017-10-16T16:10:59.156Z,82.20
2017-10-16T16:14:01.494Z,81.60
2017-10-16T16:17:03.080Z,82.50
2017-10-16T16:20:04.689Z,82.30
2017-10-16T16:23:06.550Z,81.90
2017-10-16T16:26:08.127Z,84.30
2017-10-16T16:29:09.808Z,82.40
2017-10-16T16:32:11.594Z,82.30
2017-10-16T16:35:14.368Z,77.90
2017-10-16T16:38:16.462Z,78.40
2017-10-16T16:41:18.889Z,76.70
2017-10-16T16:44:20.456Z,76.20
2017-10-16T16:47:22.091Z,74.60
2017-10-16T16:50:23.653Z,75.00
2017-10-16T16:53:25.964Z,74.20
2017-10-16T16:56:27.486Z,73.30
2017-10-16T16:59:29.140Z,73.40
2017-10-16T17:02:30.609Z,73.30
2017-10-16T17:05:32.225Z,73.00
2017-10-16T17:08:33.954Z,72.80
2017-10-16T17:11:35.567Z,72.90
2017-10-16T17:14:37.122Z,71.90
2017-10-16T17:17:38.863Z,72.20
2017-10-16T17:20:40.580Z,72.80
2017-10-16T17:23:42.990Z,72.60
2017-10-16T17:26:44.803Z,71.90
2017-10-16T17:29:46.458Z,72.20
2017-10-16T17:32:48.109Z,71.50
2017-10-16T17:35:49.858Z,73.20
2017-10-16T17:38:51.638Z,73.40
2017-10-16T17:41:53.325Z,71.30
2017-10-16T17:44:54.998Z,71.00
2017-10-16T17:47:56.685Z,72.00
2017-10-16T17:50:58.305Z,70.60
2017-10-16T17:53:59.977Z,69.90
2017-10-16T17:57:01.728Z,69.80
2017-10-16T18:00:03.459Z,70.80
2017-10-16T18:03:05.086Z,70.90
2017-10-16T18:06:07.683Z,71.40
2017-10-16T18:09:09.362Z,70.50
2017-10-16T18:12:12.302Z,70.10
2017-10-16T18:15:14.011Z,70.60
2017-10-16T18:18:16.536Z,70.50
2017-10-16T18:21:18.219Z,70.90
2017-10-16T18:24:20.061Z,70.80
2017-10-16T18:27:22.291Z,71.60
2017-10-16T18:30:24.742Z,72.00
2017-10-16T18:33:27.204Z,70.40
2017-10-16T18:36:28.878Z,69.30
2017-10-16T18:39:31.713Z,71.20
2017-10-16T18:42:33.419Z,70.70
2017-10-16T18:45:36.217Z,70.90
2017-10-16T18:48:37.886Z,70.30
2017-10-16T18:51:39.604Z,70.80
2017-10-16T18:54:41.593Z,71.60
2017-10-16T18:57:44.073Z,72.70
2017-10-16T19:00:47.313Z,69.70
2017-10-16T19:03:50.055Z,71.90
2017-10-16T19:06:52.515Z,71.50
2017-10-16T19:09:54.975Z,71.70
2017-10-16T19:12:56.664Z,72.80
2017-10-16T19:15:59.005Z,71.70
2017-10-16T19:19:00.640Z,70.50
2017-10-16T19:22:02.316Z,71.60
2017-10-16T19:25:04.126Z,71.20
2017-10-16T19:28:05.880Z,71.90
2017-10-16T19:31:10.397Z,70.90
2017-10-16T19:34:12.768Z,70.90
2017-10-16T19:37:15.274Z,71.10
2017-10-16T19:40:16.924Z,70.90
2017-10-16T19:43:18.580Z,70.10
2017-10-16T19:46:21.003Z,71.00
2017-10-16T19:49:22.735Z,68.80
2017-10-16T19:52:24.418Z,70.70
2017-10-16T19:55:26.137Z,69.80
2017-10-16T19:58:29.666Z,71.50
2017-10-16T20:01:31.396Z,71.70
2017-10-16T20:04:34.424Z,71.40
2017-10-16T20:07:37.027Z,71.00
2017-10-16T20:10:38.798Z,70.20
2017-10-16T20:13:41.296Z,70.80
2017-10-16T20:16:42.952Z,69.90
2017-10-16T20:19:44.756Z,69.50
2017-10-16T20:22:46.426Z,71.70
2017-10-16T20:25:48.774Z,69.70
2017-10-16T20:28:50.480Z,69.00
2017-10-16T20:31:52.976Z,69.70
2017-10-16T20:34:54.801Z,68.80
2017-10-16T20:37:56.501Z,67.30
2017-10-16T20:40:59.081Z,69.30
2017-10-16T20:44:01.450Z,68.70
2017-10-16T20:47:04.803Z,68.70
2017-10-16T20:50:06.494Z,68.70
2017-10-16T20:53:08.221Z,67.60
2017-10-16T20:56:10.157Z,67.90
2017-10-16T20:59:11.946Z,67.60
2017-10-16T21:02:14.212Z,67.30
2017-10-16T21:05:16.582Z,66.00
2017-10-16T21:08:18.391Z,66.10
2017-10-16T21:11:20.169Z,66.90
2017-10-16T21:14:22.519Z,67.20
2017-10-16T21:17:24.819Z,66.90
2017-10-16T21:20:27.999Z,67.00
2017-10-16T21:23:31.664Z,66.10
2017-10-16T21:31:40.095Z,67.00
2017-10-16T21:34:41.775Z,66.80
2017-10-16T21:37:45.576Z,64.90
2017-10-16T21:40:47.903Z,65.30
2017-10-16T21:43:50.273Z,66.10
2017-10-16T21:46:53.220Z,66.20
2017-10-16T21:49:55.074Z,64.70
2017-10-16T21:52:56.771Z,64.80
2017-10-16T21:55:59.205Z,66.00
2017-10-16T21:59:00.999Z,65.30
2017-10-16T22:02:02.698Z,66.10
2017-10-16T22:05:04.581Z,65.10
2017-10-16T22:08:06.304Z,65.40
2017-10-16T22:11:08.755Z,66.30
2017-10-16T22:14:10.503Z,65.10
2017-10-16T22:17:12.231Z,64.60
2017-10-16T22:20:13.817Z,64.60
2017-10-16T22:23:16.154Z,64.90
2017-10-16T22:26:18.791Z,65.10
2017-10-16T22:29:20.487Z,65.40
2017-10-16T22:32:23.192Z,66.50
2017-10-16T22:35:24.971Z,65.40
2017-10-16T22:38:27.397Z,65.90
2017-10-16T22:41:29.105Z,65.20
2017-10-16T22:44:31.392Z,64.20
2017-10-16T22:47:33.646Z,65.80
2017-10-16T22:50:35.253Z,65.20
2017-10-16T22:53:36.887Z,64.50
2017-10-16T22:56:39.391Z,65.80
2017-10-16T22:59:41.056Z,66.30
2017-10-16T23:02:42.802Z,64.90
2017-10-16T23:05:44.557Z,64.80
2017-10-16T23:08:46.971Z,65.80
2017-10-16T23:11:48.700Z,66.60
2017-10-16T23:14:50.431Z,65.30
2017-10-16T23:17:53.612Z,66.30
2017-10-16T23:20:55.964Z,65.50
2017-10-16T23:23:57.766Z,64.70
2017-10-16T23:27:00.085Z,66.10
2017-10-16T23:30:02.472Z,65.20
2017-10-16T23:33:04.154Z,64.90
2017-10-16T23:36:05.877Z,65.60
2017-10-16T23:39:07.533Z,64.90
2017-10-16T23:42:09.300Z,65.60
2017-10-16T23:45:11.015Z,65.10
2017-10-16T23:48:13.382Z,66.00
2017-10-16T23:51:15.773Z,66.00
2017-10-16T23:54:17.392Z,65.40
2017-10-16T23:57:18.965Z,65.80
